createdAt,value
2015-07-17T00:00:10.835Z,11.31
2015-07-17T00:00:23.182Z,11.35
2015-07-17T00:00:35.369Z,11.38
2015-07-17T00:00:47.697Z,11.35
2015-07-17T00:01:00.025Z,11.31
2015-07-17T00:01:12.385Z,11.42
2015-07-17T00:01:24.714Z,11.28
2015-07-17T00:01:37.042Z,11.38
2015-07-17T00:01:49.386Z,11.33
2015-07-17T00:02:01.745Z,11.35
2015-07-17T00:02:14.089Z,11.31
2015-07-17T00:02:25.732Z,11.27
2015-07-17T00:02:38.091Z,11.21
2015-07-17T00:02:50.450Z,11.21
2015-07-17T00:03:02.825Z,11.3
2015-07-17T00:03:15.200Z,11.21
2015-07-17T00:03:27.577Z,11.26
2015-07-17T00:03:39.952Z,11.15
2015-07-17T00:03:52.327Z,11.18
2015-07-17T00:04:04.687Z,11.15
2015-07-17T00:04:17.030Z,11.3
2015-07-17T00:04:29.376Z,11.33
2015-07-17T00:04:41.720Z,11.21
2015-07-17T00:04:54.048Z,11.21
2015-07-17T00:05:06.392Z,11.18
2015-07-17T00:05:18.736Z,11.16
2015-07-17T00:05:31.066Z,11.16
2015-07-17T00:05:43.409Z,11.21
2015-07-17T00:05:55.753Z,11.18
2015-07-17T00:06:08.097Z,11.3
2015-07-17T00:06:20.425Z,11.15
2015-07-17T00:06:32.771Z,11.18
2015-07-17T00:06:45.099Z,11.16
2015-07-17T00:06:57.443Z,11.24
2015-07-17T00:07:09.771Z,11.24
2015-07-17T00:07:22.115Z,11.15
2015-07-17T00:07:34.460Z,11.21
2015-07-17T00:07:46.820Z,11.16
2015-07-17T00:07:59.163Z,11.16
2015-07-17T00:08:11.523Z,11.21
2015-07-17T00:08:23.882Z,11.18
2015-07-17T00:08:35.540Z,11.21
2015-07-17T00:08:47.931Z,11.16
2015-07-17T00:09:00.290Z,11.16
2015-07-17T00:09:12.650Z,11.15
2015-07-17T00:09:25.009Z,11.23
2015-07-17T00:09:37.386Z,11.2
2015-07-17T00:09:49.605Z,11.13
2015-07-17T00:10:01.949Z,11.18
2015-07-17T00:10:14.292Z,11.15
2015-07-17T00:10:26.636Z,11.2
2015-07-17T00:10:38.982Z,11.18
2015-07-17T00:10:51.326Z,11.15
2015-07-17T00:11:03.685Z,11.15
2015-07-17T00:11:16.029Z,11.2
2015-07-17T00:11:28.357Z,11.15
2015-07-17T00:11:40.718Z,11.2
2015-07-17T00:11:53.046Z,11.23
2015-07-17T00:12:05.406Z,11.16
2015-07-17T00:12:17.750Z,11.2
2015-07-17T00:12:30.093Z,11.2
2015-07-17T00:12:42.439Z,11.18
2015-07-17T00:12:54.783Z,11.16
2015-07-17T00:13:07.111Z,11.18
2015-07-17T00:13:19.455Z,11.2
2015-07-17T00:13:31.798Z,11.18
2015-07-17T00:13:44.144Z,11.15
2015-07-17T00:13:56.332Z,11.15
2015-07-17T00:14:08.707Z,11.18
2015-07-17T00:14:21.066Z,11.21
2015-07-17T00:14:33.457Z,11.18
2015-07-17T00:14:45.834Z,11.21
2015-07-17T00:14:58.193Z,11.18
2015-07-17T00:15:09.881Z,11.16
2015-07-17T00:15:22.256Z,11.28
2015-07-17T00:15:34.615Z,11.21
2015-07-17T00:15:46.960Z,11.15
2015-07-17T00:15:59.288Z,11.2
2015-07-17T00:16:11.678Z,11.26
2015-07-17T00:16:24.007Z,11.24
2015-07-17T00:16:36.350Z,11.27
2015-07-17T00:16:48.696Z,11.15
2015-07-17T00:17:01.024Z,11.2
2015-07-17T00:17:13.368Z,11.16
2015-07-17T00:17:25.696Z,11.33
2015-07-17T00:17:38.040Z,11.24
2015-07-17T00:17:50.386Z,11.35
2015-07-17T00:18:02.714Z,11.33
2015-07-17T00:18:15.057Z,11.2
2015-07-17T00:18:27.245Z,11.35
2015-07-17T00:18:39.589Z,11.28
2015-07-17T00:18:51.920Z,11.3
2015-07-17T00:19:04.264Z,11.31
2015-07-17T00:19:16.623Z,11.28
2015-07-17T00:19:28.967Z,11.34
2015-07-17T00:19:41.326Z,11.34
2015-07-17T00:19:53.687Z,11.31
2015-07-17T00:20:06.062Z,11.26
2015-07-17T00:20:18.453Z,11.3
2015-07-17T00:20:30.812Z,11.28
2015-07-17T00:20:43.187Z,11.38
2015-07-17T00:20:55.517Z,11.28
2015-07-17T00:21:07.845Z,11.27
2015-07-17T00:21:20.173Z,11.31
2015-07-17T00:21:32.532Z,11.31
2015-07-17T00:21:44.860Z,11.28
2015-07-17T00:21:57.207Z,11.27
2015-07-17T00:22:09.551Z,11.33
2015-07-17T00:22:21.895Z,11.3
2015-07-17T00:22:34.520Z,11.33
2015-07-17T00:22:46.863Z,11.34
2015-07-17T00:22:59.208Z,11.3
2015-07-17T00:23:10.833Z,11.3
2015-07-17T00:23:23.177Z,11.34
2015-07-17T00:23:35.521Z,11.31
2015-07-17T00:23:47.849Z,11.38
2015-07-17T00:24:00.179Z,11.35
2015-07-17T00:24:12.523Z,11.3
2015-07-17T00:24:24.866Z,11.34
2015-07-17T00:24:37.257Z,11.34
2015-07-17T00:24:49.616Z,11.33
2015-07-17T00:25:02.010Z,11.34
2015-07-17T00:25:14.369Z,11.35
2015-07-17T00:25:26.744Z,11.34
2015-07-17T00:25:39.119Z,11.38
2015-07-17T00:25:51.479Z,11.33
2015-07-17T00:26:03.840Z,11.3
2015-07-17T00:26:16.215Z,11.35
2015-07-17T00:26:28.574Z,11.33
2015-07-17T00:26:40.918Z,11.34
2015-07-17T00:26:53.262Z,11.38
2015-07-17T00:27:05.608Z,11.38
2015-07-17T00:27:17.951Z,11.31
2015-07-17T00:27:30.295Z,11.38
2015-07-17T00:27:42.639Z,11.28
2015-07-17T00:27:54.967Z,11.41
2015-07-17T00:28:07.312Z,11.38
2015-07-17T00:28:19.656Z,11.34
2015-07-17T00:28:31.999Z,11.38
2015-07-17T00:28:44.343Z,11.41
2015-07-17T00:28:56.671Z,11.33
2015-07-17T00:29:09.033Z,11.38
2015-07-17T00:29:21.361Z,11.35
2015-07-17T00:29:33.704Z,11.41
2015-07-17T00:29:46.033Z,11.35
2015-07-17T00:29:58.376Z,11.31
2015-07-17T00:30:10.723Z,11.41
2015-07-17T00:30:23.067Z,11.41
2015-07-17T00:30:35.442Z,11.33
2015-07-17T00:30:47.801Z,11.34
2015-07-17T00:31:00.176Z,11.31
2015-07-17T00:31:12.538Z,11.34
2015-07-17T00:31:24.913Z,11.34
2015-07-17T00:31:37.303Z,11.34
2015-07-17T00:31:49.663Z,11.39
2015-07-17T00:32:02.038Z,11.41
2015-07-17T00:32:14.383Z,11.39
2015-07-17T00:32:26.727Z,11.43
2015-07-17T00:32:38.352Z,11.38
2015-07-17T00:32:50.680Z,11.41
2015-07-17T00:33:03.024Z,11.33
2015-07-17T00:33:15.369Z,11.34
2015-07-17T00:33:27.697Z,11.38
2015-07-17T00:33:40.056Z,11.33
2015-07-17T00:33:52.400Z,11.39
2015-07-17T00:34:04.744Z,11.38
2015-07-17T00:34:17.089Z,11.33
2015-07-17T00:34:29.433Z,11.35
2015-07-17T00:34:41.761Z,11.41
2015-07-17T00:34:54.105Z,11.35
2015-07-17T00:35:06.449Z,11.3
2015-07-17T00:35:18.857Z,11.35
2015-07-17T00:35:31.185Z,11.31
2015-07-17T00:35:43.545Z,11.34
2015-07-17T00:35:55.888Z,11.33
2015-07-17T00:36:08.248Z,11.31
2015-07-17T00:36:20.625Z,11.34
2015-07-17T00:36:32.843Z,11.38
2015-07-17T00:36:45.218Z,11.38
2015-07-17T00:36:57.578Z,11.33
2015-07-17T00:37:09.953Z,11.27
2015-07-17T00:37:22.330Z,11.31
2015-07-17T00:37:34.689Z,11.38
2015-07-17T00:37:47.017Z,11.35
2015-07-17T00:37:59.361Z,11.31
2015-07-17T00:38:11.689Z,11.34
2015-07-17T00:38:24.035Z,11.35
2015-07-17T00:38:36.394Z,11.31
2015-07-17T00:38:48.738Z,11.31
2015-07-17T00:39:01.082Z,11.31
2015-07-17T00:39:13.410Z,11.33
2015-07-17T00:39:25.771Z,11.3
2015-07-17T00:39:38.115Z,11.28
2015-07-17T00:39:50.459Z,11.35
2015-07-17T00:40:02.787Z,11.31
2015-07-17T00:40:15.131Z,11.34
2015-07-17T00:40:27.476Z,11.38
2015-07-17T00:40:39.820Z,11.28
2015-07-17T00:40:52.148Z,11.35
2015-07-17T00:41:04.508Z,11.31
2015-07-17T00:41:16.851Z,11.31
2015-07-17T00:41:29.213Z,11.3
2015-07-17T00:41:41.557Z,11.31
2015-07-17T00:41:53.916Z,11.38
2015-07-17T00:42:06.275Z,11.31
2015-07-17T00:42:18.637Z,11.35
2015-07-17T00:42:31.012Z,11.3
2015-07-17T00:42:43.371Z,11.34
2015-07-17T00:42:55.746Z,11.35
2015-07-17T00:43:08.105Z,11.31
2015-07-17T00:43:20.435Z,11.33
2015-07-17T00:43:32.778Z,11.28
2015-07-17T00:43:45.122Z,11.31
2015-07-17T00:43:57.450Z,11.27
2015-07-17T00:44:09.653Z,11.28
2015-07-17T00:44:21.999Z,11.28
2015-07-17T00:44:34.343Z,11.3
2015-07-17T00:44:46.687Z,11.23
2015-07-17T00:44:59.015Z,11.42
2015-07-17T00:45:11.358Z,11.34
2015-07-17T00:45:23.689Z,11.27
2015-07-17T00:45:36.032Z,11.31
2015-07-17T00:45:48.360Z,11.34
2015-07-17T00:46:00.689Z,11.28
2015-07-17T00:46:13.032Z,11.33
2015-07-17T00:46:25.363Z,11.34
2015-07-17T00:46:37.707Z,11.38
2015-07-17T00:46:50.051Z,11.31
2015-07-17T00:47:02.395Z,11.23
2015-07-17T00:47:14.754Z,11.33
2015-07-17T00:47:27.115Z,11.31
2015-07-17T00:47:39.490Z,11.31
2015-07-17T00:47:51.834Z,11.35
2015-07-17T00:48:04.162Z,11.31
2015-07-17T00:48:16.350Z,11.28
2015-07-17T00:48:28.695Z,11.21
2015-07-17T00:48:41.038Z,11.34
2015-07-17T00:48:53.366Z,11.27
2015-07-17T00:49:05.710Z,11.23
2015-07-17T00:49:18.038Z,11.21
2015-07-17T00:49:30.369Z,11.3
2015-07-17T00:49:42.713Z,11.24
2015-07-17T00:49:55.057Z,11.26
2015-07-17T00:50:07.416Z,11.18
2015-07-17T00:50:19.744Z,11.24
2015-07-17T00:50:32.106Z,11.33
2015-07-17T00:50:44.434Z,11.3
2015-07-17T00:50:56.809Z,11.3
2015-07-17T00:51:09.153Z,11.23
2015-07-17T00:51:21.496Z,11.27
2015-07-17T00:51:33.841Z,11.28
2015-07-17T00:51:46.201Z,11.21
2015-07-17T00:51:58.576Z,11.28
2015-07-17T00:52:10.951Z,11.27
2015-07-17T00:52:23.326Z,11.26
2015-07-17T00:52:35.704Z,11.3
2015-07-17T00:52:48.063Z,11.2
2015-07-17T00:53:00.438Z,11.13
2015-07-17T00:53:12.797Z,11.18
2015-07-17T00:53:25.172Z,11.34
2015-07-17T00:53:37.548Z,11.13
2015-07-17T00:53:49.892Z,11.28
2015-07-17T00:54:02.220Z,11.18
2015-07-17T00:54:14.564Z,11.15
2015-07-17T00:54:26.908Z,11.27
2015-07-17T00:54:39.254Z,11.18
2015-07-17T00:54:51.583Z,11.21
2015-07-17T00:55:03.208Z,11.18
2015-07-17T00:55:15.536Z,11.26
2015-07-17T00:55:27.864Z,11.24
2015-07-17T00:55:40.209Z,11.21
2015-07-17T00:55:52.552Z,11.15
2015-07-17T00:56:04.896Z,11.23
2015-07-17T00:56:17.240Z,11.21
2015-07-17T00:56:29.584Z,11.16
2015-07-17T00:56:41.929Z,11.23
2015-07-17T00:56:54.257Z,11.16
2015-07-17T00:57:06.617Z,11.2
2015-07-17T00:57:18.961Z,11.18
2015-07-17T00:57:31.320Z,11.18
2015-07-17T00:57:43.681Z,11.18
2015-07-17T00:57:56.056Z,11.16
2015-07-17T00:58:08.416Z,11.18
2015-07-17T00:58:20.791Z,11.16
2015-07-17T00:58:33.166Z,11.15
2015-07-17T00:58:45.527Z,11.15
2015-07-17T00:58:57.918Z,11.21
2015-07-17T00:59:10.293Z,11.13
2015-07-17T00:59:22.621Z,11.16
2015-07-17T00:59:34.246Z,11.15
2015-07-17T00:59:46.592Z,11.13
2015-07-17T00:59:58.920Z,11.2
2015-07-17T01:00:11.263Z,11.18
2015-07-17T01:00:23.623Z,11.13
2015-07-17T01:00:35.951Z,11.18
2015-07-17T01:00:48.298Z,11.12
2015-07-17T01:01:00.641Z,11.15
2015-07-17T01:01:12.985Z,11.13
2015-07-17T01:01:25.313Z,11.08
2015-07-17T01:01:37.673Z,11.13
2015-07-17T01:01:50.018Z,11.08
2015-07-17T01:02:02.362Z,11.06
2015-07-17T01:02:14.722Z,11.13
2015-07-17T01:02:27.081Z,11.1
2015-07-17T01:02:39.425Z,11.08
2015-07-17T01:02:51.769Z,11.09
2015-07-17T01:03:04.113Z,11.08
2015-07-17T01:03:16.473Z,11.05
2015-07-17T01:03:28.848Z,11.05
2015-07-17T01:03:41.223Z,11.03
2015-07-17T01:03:53.584Z,11.12
2015-07-17T01:04:05.959Z,11.12
2015-07-17T01:04:18.303Z,11.09
2015-07-17T01:04:30.662Z,11.05
2015-07-17T01:04:43.037Z,11.02
2015-07-17T01:04:55.383Z,11.03
2015-07-17T01:05:07.727Z,11.03
2015-07-17T01:05:20.070Z,11.03
2015-07-17T01:05:32.414Z,11.1
2015-07-17T01:05:44.758Z,10.98
2015-07-17T01:05:57.104Z,11.09
2015-07-17T01:06:09.432Z,11.08
2015-07-17T01:06:21.775Z,11.13
2015-07-17T01:06:34.119Z,11.1
2015-07-17T01:06:46.447Z,11.03
2015-07-17T01:06:58.777Z,11.09
2015-07-17T01:07:11.121Z,11.09
2015-07-17T01:07:23.465Z,11.03
2015-07-17T01:07:35.824Z,11.03
2015-07-17T01:07:48.168Z,11.08
2015-07-17T01:07:59.795Z,11.05
2015-07-17T01:08:12.139Z,11.09
2015-07-17T01:08:24.483Z,11.06
2015-07-17T01:08:36.826Z,11.05
2015-07-17T01:08:49.170Z,11.06
2015-07-17T01:09:01.531Z,11.06
2015-07-17T01:09:13.891Z,11.09
2015-07-17T01:09:26.281Z,10.97
2015-07-17T01:09:38.641Z,11.08
2015-07-17T01:09:51.000Z,11.02
2015-07-17T01:10:03.377Z,11.16
2015-07-17T01:10:15.752Z,11.08
2015-07-17T01:10:28.112Z,11.16
2015-07-17T01:10:40.721Z,11.09
2015-07-17T01:10:53.066Z,11.06
2015-07-17T01:11:05.409Z,11.06
2015-07-17T01:11:17.753Z,11.06
2015-07-17T01:11:30.097Z,11.02
2015-07-17T01:11:42.441Z,11.06
2015-07-17T01:11:54.771Z,11.16
2015-07-17T01:12:07.115Z,11.09
2015-07-17T01:12:19.458Z,11.1
2015-07-17T01:12:31.802Z,11.12
2015-07-17T01:12:44.130Z,11.13
2015-07-17T01:12:56.476Z,11.08
2015-07-17T01:13:08.820Z,11.1
2015-07-17T01:13:21.148Z,11.1
2015-07-17T01:13:33.492Z,11.09
2015-07-17T01:13:45.835Z,11.02
2015-07-17T01:13:58.198Z,11.03
2015-07-17T01:14:10.557Z,11.12
2015-07-17T01:14:22.901Z,11.09
2015-07-17T01:14:35.260Z,11.08
2015-07-17T01:14:47.635Z,11.12
2015-07-17T01:15:00.011Z,11.12
2015-07-17T01:15:12.386Z,11.05
2015-07-17T01:15:24.042Z,11.05
2015-07-17T01:15:36.417Z,11.09
2015-07-17T01:15:48.808Z,11.06
2015-07-17T01:16:01.169Z,11.12
2015-07-17T01:16:12.810Z,11.15
2015-07-17T01:16:25.154Z,11.1
2015-07-17T01:16:37.498Z,11.12
2015-07-17T01:16:49.841Z,11.02
2015-07-17T01:17:02.188Z,11.1
2015-07-17T01:17:14.532Z,11
2015-07-17T01:17:26.876Z,11.09
2015-07-17T01:17:39.204Z,11.05
2015-07-17T01:17:51.563Z,11.03
2015-07-17T01:18:03.893Z,11.1
2015-07-17T01:18:16.237Z,11.16
2015-07-17T01:18:28.565Z,11.12
2015-07-17T01:18:40.909Z,11
2015-07-17T01:18:53.253Z,11.05
2015-07-17T01:19:05.583Z,11.06
2015-07-17T01:19:17.942Z,11.02
2015-07-17T01:19:30.286Z,11.13
2015-07-17T01:19:42.630Z,11.06
2015-07-17T01:19:54.973Z,11.03
2015-07-17T01:20:07.334Z,11.08
2015-07-17T01:20:19.677Z,11.06
2015-07-17T01:20:32.052Z,11.05
2015-07-17T01:20:44.427Z,11.08
2015-07-17T01:20:56.787Z,11.06
2015-07-17T01:21:09.164Z,11.08
2015-07-17T01:21:21.539Z,11.06
2015-07-17T01:21:33.758Z,11.02
2015-07-17T01:21:46.133Z,11.02
2015-07-17T01:21:58.461Z,11.05
2015-07-17T01:22:10.088Z,11.05
2015-07-17T01:22:22.431Z,11.03
2015-07-17T01:22:34.775Z,11.06
2015-07-17T01:22:47.119Z,11.02
2015-07-17T01:22:59.463Z,11.03
2015-07-17T01:23:11.809Z,11.03
2015-07-17T01:23:24.138Z,10.97
2015-07-17T01:23:36.481Z,11.02
2015-07-17T01:23:48.809Z,11.1
2015-07-17T01:24:01.153Z,11
2015-07-17T01:24:13.499Z,11.05
2015-07-17T01:24:25.827Z,11.06
2015-07-17T01:24:38.186Z,11.02
2015-07-17T01:24:50.530Z,11.03
2015-07-17T01:25:02.858Z,10.98
2015-07-17T01:25:15.187Z,11.08
2015-07-17T01:25:27.547Z,11.08
2015-07-17T01:25:39.891Z,11.02
2015-07-17T01:25:52.250Z,11.02
2015-07-17T01:26:04.625Z,11.02
2015-07-17T01:26:16.986Z,11.02
2015-07-17T01:26:29.361Z,11.02
2015-07-17T01:26:41.752Z,11
2015-07-17T01:26:53.955Z,11.02
2015-07-17T01:27:06.330Z,11.06
2015-07-17T01:27:18.676Z,11.03
2015-07-17T01:27:31.004Z,11.1
2015-07-17T01:27:43.363Z,11.06
2015-07-17T01:27:55.723Z,11.05
2015-07-17T01:28:08.051Z,11.02
2015-07-17T01:28:20.412Z,10.97
2015-07-17T01:28:32.756Z,10.98
2015-07-17T01:28:45.100Z,10.97
2015-07-17T01:28:57.443Z,11.06
2015-07-17T01:29:09.772Z,10.98
2015-07-17T01:29:22.117Z,11.02
2015-07-17T01:29:34.445Z,11.05
2015-07-17T01:29:46.789Z,11
2015-07-17T01:29:58.430Z,11.03
2015-07-17T01:30:10.758Z,11.02
2015-07-17T01:30:23.104Z,11
2015-07-17T01:30:35.432Z,11
2015-07-17T01:30:47.791Z,11
2015-07-17T01:31:00.135Z,11.05
2015-07-17T01:31:12.494Z,11.06
2015-07-17T01:31:24.856Z,11.02
2015-07-17T01:31:37.246Z,10.98
2015-07-17T01:31:49.621Z,10.98
2015-07-17T01:32:01.981Z,11
2015-07-17T01:32:13.637Z,11.08
2015-07-17T01:32:26.029Z,11.08
2015-07-17T01:32:38.404Z,11.06
2015-07-17T01:32:50.763Z,11.03
2015-07-17T01:33:03.122Z,11.05
2015-07-17T01:33:15.466Z,11.02
2015-07-17T01:33:27.813Z,11.09
2015-07-17T01:33:40.141Z,11.02
2015-07-17T01:33:52.500Z,11.06
2015-07-17T01:34:04.844Z,11.02
2015-07-17T01:34:17.172Z,11.03
2015-07-17T01:34:29.517Z,11.06
2015-07-17T01:34:41.876Z,11.02
2015-07-17T01:34:54.204Z,11
2015-07-17T01:35:06.548Z,11.08
2015-07-17T01:35:18.892Z,11.09
2015-07-17T01:35:31.238Z,11.1
2015-07-17T01:35:43.566Z,11.12
2015-07-17T01:35:55.910Z,11.03
2015-07-17T01:36:08.519Z,11.05
2015-07-17T01:36:20.847Z,11
2015-07-17T01:36:33.208Z,11.02
2015-07-17T01:36:45.552Z,11.08
2015-07-17T01:36:57.896Z,11.12
2015-07-17T01:37:10.255Z,11.05
2015-07-17T01:37:22.599Z,11.06
2015-07-17T01:37:34.976Z,11.05
2015-07-17T01:37:47.335Z,11.08
2015-07-17T01:37:59.710Z,11.03
2015-07-17T01:38:12.085Z,11.08
2015-07-17T01:38:24.445Z,11.12
2015-07-17T01:38:36.791Z,11.09
2015-07-17T01:38:49.134Z,11.12
2015-07-17T01:39:01.462Z,11.13
2015-07-17T01:39:13.806Z,11.09
2015-07-17T01:39:26.150Z,11.02
2015-07-17T01:39:38.496Z,11.13
2015-07-17T01:39:50.839Z,11.1
2015-07-17T01:40:03.168Z,11.12
2015-07-17T01:40:15.511Z,11.13
2015-07-17T01:40:27.855Z,11.09
2015-07-17T01:40:40.186Z,11.15
2015-07-17T01:40:52.530Z,11.12
2015-07-17T01:41:04.874Z,11.12
2015-07-17T01:41:17.217Z,11.13
2015-07-17T01:41:29.577Z,11.13
2015-07-17T01:41:41.938Z,11.06
2015-07-17T01:41:54.266Z,11.13
2015-07-17T01:42:06.610Z,11.16
2015-07-17T01:42:18.954Z,11.15
2015-07-17T01:42:31.313Z,11.08
2015-07-17T01:42:43.674Z,11.12
2015-07-17T01:42:56.033Z,11.13
2015-07-17T01:43:08.408Z,11.13
2015-07-17T01:43:20.767Z,11.09
2015-07-17T01:43:33.142Z,11.1
2015-07-17T01:43:45.504Z,11.1
2015-07-17T01:43:57.863Z,11.05
2015-07-17T01:44:09.754Z,11.12
2015-07-17T01:44:22.097Z,11.03
2015-07-17T01:44:34.269Z,11.09
2015-07-17T01:44:46.616Z,11.12
2015-07-17T01:44:58.944Z,11.09
2015-07-17T01:45:11.304Z,11.15
2015-07-17T01:45:23.647Z,11.13
2015-07-17T01:45:35.977Z,11.16
2015-07-17T01:45:48.321Z,11.06
2015-07-17T01:46:00.665Z,11.12
2015-07-17T01:46:13.009Z,11.03
2015-07-17T01:46:25.352Z,11.02
2015-07-17T01:46:37.697Z,11.06
2015-07-17T01:46:50.041Z,11.08
2015-07-17T01:47:02.385Z,11.06
2015-07-17T01:47:14.728Z,11.09
2015-07-17T01:47:27.057Z,11.03
2015-07-17T01:47:39.418Z,11.09
2015-07-17T01:47:51.762Z,11.06
2015-07-17T01:48:04.105Z,11.09
2015-07-17T01:48:16.465Z,11.02
2015-07-17T01:48:28.840Z,11.06
2015-07-17T01:48:41.201Z,11.08
2015-07-17T01:48:53.561Z,11.02
2015-07-17T01:49:05.904Z,11.09
2015-07-17T01:49:18.279Z,11.02
2015-07-17T01:49:30.639Z,10.98
2015-07-17T01:49:43.016Z,11.08
2015-07-17T01:49:55.359Z,11.09
2015-07-17T01:50:07.703Z,11
2015-07-17T01:50:20.031Z,11.03
2015-07-17T01:50:32.359Z,11
2015-07-17T01:50:44.705Z,10.95
2015-07-17T01:50:57.049Z,10.97
2015-07-17T01:51:09.377Z,10.98
2015-07-17T01:51:21.736Z,10.95
2015-07-17T01:51:34.096Z,11.02
2015-07-17T01:51:46.426Z,11.05
2015-07-17T01:51:58.770Z,10.98
2015-07-17T01:52:11.098Z,10.97
2015-07-17T01:52:23.442Z,11.03
2015-07-17T01:52:35.785Z,10.97
2015-07-17T01:52:48.116Z,11.03
2015-07-17T01:53:00.460Z,10.97
2015-07-17T01:53:12.788Z,11
2015-07-17T01:53:25.132Z,10.95
2015-07-17T01:53:37.491Z,10.91
2015-07-17T01:53:49.836Z,10.95
2015-07-17T01:54:02.211Z,10.9
2015-07-17T01:54:14.586Z,11.02
2015-07-17T01:54:26.961Z,11.05
2015-07-17T01:54:39.336Z,11.02
2015-07-17T01:54:51.713Z,10.95
2015-07-17T01:55:03.932Z,10.98
2015-07-17T01:55:16.323Z,10.95
2015-07-17T01:55:28.932Z,10.97
2015-07-17T01:55:41.276Z,10.95
2015-07-17T01:55:53.621Z,11
2015-07-17T01:56:05.950Z,11
2015-07-17T01:56:18.278Z,10.95
2015-07-17T01:56:30.621Z,11.03
2015-07-17T01:56:42.950Z,11
2015-07-17T01:56:55.295Z,11.05
2015-07-17T01:57:07.639Z,10.98
2015-07-17T01:57:19.967Z,10.97
2015-07-17T01:57:32.311Z,11.03
2015-07-17T01:57:44.655Z,11
2015-07-17T01:57:57.000Z,10.97
2015-07-17T01:58:09.344Z,11.03
2015-07-17T01:58:21.688Z,11
2015-07-17T01:58:34.032Z,11
2015-07-17T01:58:46.375Z,11
2015-07-17T01:58:58.721Z,11.02
2015-07-17T01:59:11.081Z,10.98
2015-07-17T01:59:23.424Z,11
2015-07-17T01:59:35.784Z,11.08
2015-07-17T01:59:48.143Z,10.97
2015-07-17T02:00:00.504Z,10.97
2015-07-17T02:00:12.879Z,10.98
2015-07-17T02:00:25.239Z,11.02
2015-07-17T02:00:37.614Z,11
2015-07-17T02:00:49.973Z,11.02
2015-07-17T02:01:02.319Z,10.95
2015-07-17T02:01:14.647Z,11
2015-07-17T02:01:26.991Z,11.03
2015-07-17T02:01:39.335Z,10.98
2015-07-17T02:01:51.678Z,10.94
2015-07-17T02:02:04.024Z,11.06
2015-07-17T02:02:16.368Z,11.06
2015-07-17T02:02:28.712Z,11.02
2015-07-17T02:02:41.071Z,10.92
2015-07-17T02:02:53.399Z,11.05
2015-07-17T02:03:05.744Z,11
2015-07-17T02:03:18.072Z,11.02
2015-07-17T02:03:30.416Z,11.03
2015-07-17T02:03:42.744Z,11
2015-07-17T02:03:55.072Z,10.98
2015-07-17T02:04:07.419Z,11.02
2015-07-17T02:04:19.762Z,11.05
2015-07-17T02:04:32.122Z,11.05
2015-07-17T02:04:44.466Z,11.05
2015-07-17T02:04:56.825Z,11.02
2015-07-17T02:05:09.030Z,11.09
2015-07-17T02:05:21.249Z,11.03
2015-07-17T02:05:33.624Z,11.12
2015-07-17T02:05:45.983Z,11.03
2015-07-17T02:05:58.358Z,11.03
2015-07-17T02:06:10.734Z,10.95
2015-07-17T02:06:23.109Z,11.05
2015-07-17T02:06:35.453Z,10.98
2015-07-17T02:06:47.094Z,11.08
2015-07-17T02:06:59.422Z,11.03
2015-07-17T02:07:11.065Z,10.95
2015-07-17T02:07:23.675Z,11
2015-07-17T02:07:35.300Z,11.05
2015-07-17T02:07:47.628Z,11
2015-07-17T02:07:59.956Z,10.98
2015-07-17T02:08:12.302Z,11.06
2015-07-17T02:08:24.645Z,10.95
2015-07-17T02:08:36.989Z,10.97
2015-07-17T02:08:49.333Z,10.97
2015-07-17T02:09:01.677Z,11.08
2015-07-17T02:09:14.006Z,11.02
2015-07-17T02:09:26.334Z,11.05
2015-07-17T02:09:38.678Z,11.05
2015-07-17T02:09:51.006Z,11.02
2015-07-17T02:10:03.350Z,11.03
2015-07-17T02:10:15.711Z,11.03
2015-07-17T02:10:28.055Z,11.02
2015-07-17T02:10:40.414Z,11.09
2015-07-17T02:10:52.773Z,11.02
2015-07-17T02:11:05.164Z,11.05
2015-07-17T02:11:17.525Z,11.02
2015-07-17T02:11:29.900Z,11.02
2015-07-17T02:11:42.275Z,11.05
2015-07-17T02:11:54.635Z,11.02
2015-07-17T02:12:07.010Z,11.02
2015-07-17T02:12:19.356Z,11.03
2015-07-17T02:12:31.684Z,11.06
2015-07-17T02:12:44.027Z,11.06
2015-07-17T02:12:56.371Z,11.03
2015-07-17T02:13:08.699Z,11.08
2015-07-17T02:13:21.045Z,11.08
2015-07-17T02:13:33.389Z,11.03
2015-07-17T02:13:45.733Z,11.09
2015-07-17T02:13:58.076Z,11.05
2015-07-17T02:14:10.404Z,11.02
2015-07-17T02:14:22.750Z,11.02
2015-07-17T02:14:35.078Z,10.98
2015-07-17T02:14:47.406Z,11.08
2015-07-17T02:14:59.766Z,11.05
2015-07-17T02:15:12.110Z,11.05
2015-07-17T02:15:24.441Z,11.08
2015-07-17T02:15:36.784Z,11.05
2015-07-17T02:15:49.128Z,11.02
2015-07-17T02:16:01.472Z,10.97
2015-07-17T02:16:13.831Z,10.97
2015-07-17T02:16:26.176Z,11.03
2015-07-17T02:16:37.848Z,11
2015-07-17T02:16:50.223Z,10.97
2015-07-17T02:17:02.582Z,10.98
2015-07-17T02:17:14.942Z,11.02
2015-07-17T02:17:27.320Z,11.06
2015-07-17T02:17:39.679Z,11.06
2015-07-17T02:17:52.070Z,10.97
2015-07-17T02:18:03.710Z,11
2015-07-17T02:18:15.320Z,10.94
2015-07-17T02:18:27.664Z,11.03
2015-07-17T02:18:40.008Z,11.02
2015-07-17T02:18:52.336Z,11.03
2015-07-17T02:19:04.680Z,11.02
2015-07-17T02:19:17.024Z,10.97
2015-07-17T02:19:29.354Z,11.05
2015-07-17T02:19:41.713Z,11.02
2015-07-17T02:19:54.057Z,10.95
2015-07-17T02:20:06.401Z,10.98
2015-07-17T02:20:18.745Z,11.03
2015-07-17T02:20:30.372Z,11.03
2015-07-17T02:20:42.715Z,11.03
2015-07-17T02:20:55.059Z,11.02
2015-07-17T02:21:07.403Z,10.94
2015-07-17T02:21:19.762Z,11.02
2015-07-17T02:21:32.124Z,11
2015-07-17T02:21:44.467Z,11
2015-07-17T02:21:56.811Z,11.02
2015-07-17T02:22:09.186Z,10.95
2015-07-17T02:22:21.545Z,11.06
2015-07-17T02:22:33.907Z,11.06
2015-07-17T02:22:46.282Z,11.03
2015-07-17T02:22:58.657Z,11.03
2015-07-17T02:23:11.032Z,11.06
2015-07-17T02:23:23.392Z,11.1
2015-07-17T02:23:35.720Z,10.98
2015-07-17T02:23:48.048Z,11
2015-07-17T02:24:00.377Z,11.02
2015-07-17T02:24:12.705Z,10.98
2015-07-17T02:24:25.036Z,11.02
2015-07-17T02:24:37.380Z,11.09
2015-07-17T02:24:49.708Z,11.02
2015-07-17T02:25:02.051Z,10.97
2015-07-17T02:25:14.395Z,11.06
2015-07-17T02:25:26.725Z,11.06
2015-07-17T02:25:39.069Z,11.02
2015-07-17T02:25:51.413Z,11
2015-07-17T02:26:03.757Z,10.98
2015-07-17T02:26:16.100Z,11
2015-07-17T02:26:28.430Z,11
2015-07-17T02:26:40.774Z,10.97
2015-07-17T02:26:53.118Z,11.03
2015-07-17T02:27:05.446Z,10.98
2015-07-17T02:27:17.790Z,11.02
2015-07-17T02:27:30.151Z,10.98
2015-07-17T02:27:41.636Z,10.97
2015-07-17T02:27:53.292Z,10.91
2015-07-17T02:28:05.651Z,10.98
2015-07-17T02:28:18.042Z,11.05
2015-07-17T02:28:30.403Z,10.95
2015-07-17T02:28:42.763Z,10.98
2015-07-17T02:28:55.153Z,10.98
2015-07-17T02:29:07.481Z,11.03
2015-07-17T02:29:19.825Z,10.97
2015-07-17T02:29:32.170Z,10.95
2015-07-17T02:29:44.514Z,10.98
2015-07-17T02:29:56.857Z,11.02
2015-07-17T02:30:09.185Z,11.08
2015-07-17T02:30:21.529Z,10.98
2015-07-17T02:30:33.875Z,11.02
2015-07-17T02:30:46.219Z,10.95
2015-07-17T02:30:58.562Z,10.98
2015-07-17T02:31:10.906Z,11.03
2015-07-17T02:31:23.250Z,11.08
2015-07-17T02:31:35.597Z,11.02
2015-07-17T02:31:47.940Z,11.06
2015-07-17T02:32:00.284Z,11
2015-07-17T02:32:12.612Z,11.06
2015-07-17T02:32:24.956Z,10.98
2015-07-17T02:32:37.302Z,11.03
2015-07-17T02:32:49.661Z,11.09
2015-07-17T02:33:02.005Z,11.08
2015-07-17T02:33:14.364Z,11.05
2015-07-17T02:33:26.739Z,10.98
2015-07-17T02:33:39.101Z,11.02
2015-07-17T02:33:51.460Z,11.02
2015-07-17T02:34:03.819Z,11.02
2015-07-17T02:34:16.194Z,11.06
2015-07-17T02:34:28.585Z,11.05
2015-07-17T02:34:40.837Z,10.98
2015-07-17T02:34:53.165Z,11.05
2015-07-17T02:35:04.806Z,11
2015-07-17T02:35:17.150Z,10.97
2015-07-17T02:35:29.493Z,11
2015-07-17T02:35:41.822Z,11.09
2015-07-17T02:35:54.166Z,10.97
2015-07-17T02:36:06.510Z,11.03
2015-07-17T02:36:18.854Z,11.03
2015-07-17T02:36:31.182Z,11.06
2015-07-17T02:36:43.512Z,11.06
2015-07-17T02:36:55.856Z,11.02
2015-07-17T02:37:08.184Z,11.08
2015-07-17T02:37:20.528Z,11.05
2015-07-17T02:37:32.871Z,11
2015-07-17T02:37:45.217Z,11.06
2015-07-17T02:37:57.545Z,11.05
2015-07-17T02:38:09.889Z,10.98
2015-07-17T02:38:22.248Z,11.06
2015-07-17T02:38:34.576Z,11.08
2015-07-17T02:38:46.922Z,11.12
2015-07-17T02:38:59.282Z,11.02
2015-07-17T02:39:11.641Z,11.09
2015-07-17T02:39:24.016Z,11.05
2015-07-17T02:39:36.375Z,11.08
2015-07-17T02:39:48.737Z,11.05
2015-07-17T02:40:01.112Z,11.08